sensor_id;sensor_type;location;lat;lon;timestamp;pressure;altitude;pressure_sealevel;temperature;humidity
48041;BME280;33815;48.386;11.738;2023-01-13T00:00:54;96376.50;;;5.29;100.00
48041;BME280;33815;48.386;11.738;2023-01-13T00:03:19;96369.47;;;5.52;99.60
48041;BME280;33815;48.386;11.738;2023-01-13T00:05:44;96366.06;;;5.52;100.00
48041;BME280;33815;48.386;11.738;2023-01-13T00:08:10;96359.72;;;5.56;99.62
48041;BME280;33815;48.386;11.738;2023-01-13T00:10:35;96346.84;;;5.65;98.84
48041;BME280;33815;48.386;11.738;2023-01-13T00:13:02;96354.03;;;5.83;97.28
48041;BME280;33815;48.386;11.738;2023-01-13T00:15:28;96350.78;;;5.81;96.61
48041;BME280;33815;48.386;11.738;2023-01-13T00:17:53;96341.44;;;5.90;95.87
48041;BME280;33815;48.386;11.738;2023-01-13T00:20:19;96346.69;;;5.99;95.63
48041;BME280;33815;48.386;11.738;2023-01-13T00:22:44;96336.34;;;5.99;94.65
48041;BME280;33815;48.386;11.738;2023-01-13T00:25:10;96340.31;;;6.04;94.69
48041;BME280;33815;48.386;11.738;2023-01-13T00:27:35;96344.56;;;6.05;94.56
48041;BME280;33815;48.386;11.738;2023-01-13T00:30:01;96334.72;;;5.87;95.26
48041;BME280;33815;48.386;11.738;2023-01-13T00:32:27;96337.47;;;6.07;95.12
48041;BME280;33815;48.386;11.738;2023-01-13T00:34:52;96323.44;;;5.88;94.61
48041;BME280;33815;48.386;11.738;2023-01-13T00:37:18;96331.28;;;6.19;93.56
48041;BME280;33815;48.386;11.738;2023-01-13T00:39:43;96330.28;;;6.10;93.61
48041;BME280;33815;48.386;11.738;2023-01-13T00:42:10;96326.84;;;6.10;94.07
48041;BME280;33815;48.386;11.738;2023-01-13T00:44:53;96305.88;;;5.92;93.87
48041;BME280;33815;48.386;11.738;2023-01-13T00:47:18;96314.03;;;5.87;94.69
48041;BME280;33815;48.386;11.738;2023-01-13T00:49:44;96313.78;;;5.90;94.69
48041;BME280;33815;48.386;11.738;2023-01-13T00:52:10;96314.97;;;5.86;94.33
48041;BME280;33815;48.386;11.738;2023-01-13T00:54:35;96315.25;;;5.83;93.86
48041;BME280;33815;48.386;11.738;2023-01-13T00:57:01;96320.41;;;5.83;94.00
48041;BME280;33815;48.386;11.738;2023-01-13T00:59:26;96318.75;;;5.82;94.46
48041;BME280;33815;48.386;11.738;2023-01-13T01:01:51;96319.34;;;5.86;93.53
48041;BME280;33815;48.386;11.738;2023-01-13T01:04:17;96308.06;;;5.65;94.29
48041;BME280;33815;48.386;11.738;2023-01-13T01:06:42;96313.53;;;5.72;95.21
48041;BME280;33815;48.386;11.738;2023-01-13T01:09:12;96314.06;;;5.66;95.21
48041;BME280;33815;48.386;11.738;2023-01-13T01:11:37;96317.38;;;5.78;93.79
48041;BME280;33815;48.386;11.738;2023-01-13T01:14:03;96315.78;;;5.98;92.95
48041;BME280;33815;48.386;11.738;2023-01-13T01:16:29;96312.13;;;6.00;93.46
48041;BME280;33815;48.386;11.738;2023-01-13T01:18:56;96317.03;;;6.04;92.55
48041;BME280;33815;48.386;11.738;2023-01-13T01:21:23;96319.09;;;6.10;92.13
48041;BME280;33815;48.386;11.738;2023-01-13T01:23:48;96306.69;;;6.04;92.71
48041;BME280;33815;48.386;11.738;2023-01-13T01:26:16;96303.56;;;6.10;91.40
48041;BME280;33815;48.386;11.738;2023-01-13T01:28:43;96291.75;;;6.17;91.60
48041;BME280;33815;48.386;11.738;2023-01-13T01:31:12;96296.28;;;6.25;91.64
48041;BME280;33815;48.386;11.738;2023-01-13T01:33:37;96287.81;;;6.23;91.67
48041;BME280;33815;48.386;11.738;2023-01-13T01:36:05;96295.47;;;6.24;91.15
48041;BME280;33815;48.386;11.738;2023-01-13T01:38:31;96300.63;;;6.14;91.64
48041;BME280;33815;48.386;11.738;2023-01-13T01:40:56;96288.03;;;6.10;92.20
48041;BME280;33815;48.386;11.738;2023-01-13T01:43:22;96272.78;;;6.07;91.63
48041;BME280;33815;48.386;11.738;2023-01-13T01:46:06;96283.94;;;6.07;91.24
48041;BME280;33815;48.386;11.738;2023-01-13T01:48:35;96291.66;;;6.28;90.46
48041;BME280;33815;48.386;11.738;2023-01-13T01:51:02;96283.69;;;6.41;89.51
48041;BME280;33815;48.386;11.738;2023-01-13T01:53:28;96292.00;;;6.45;89.55
48041;BME280;33815;48.386;11.738;2023-01-13T01:55:56;96278.09;;;6.46;89.03
48041;BME280;33815;48.386;11.738;2023-01-13T01:58:30;96275.06;;;6.41;89.13
48041;BME280;33815;48.386;11.738;2023-01-13T02:00:59;96292.09;;;6.33;89.81
48041;BME280;33815;48.386;11.738;2023-01-13T02:03:24;96269.22;;;6.39;89.13
48041;BME280;33815;48.386;11.738;2023-01-13T02:05:50;96278.06;;;6.36;90.05
48041;BME280;33815;48.386;11.738;2023-01-13T02:08:16;96272.22;;;6.34;89.99
48041;BME280;33815;48.386;11.738;2023-01-13T02:10:44;96270.56;;;6.33;89.90
48041;BME280;33815;48.386;11.738;2023-01-13T02:13:12;96266.78;;;6.37;88.94
48041;BME280;33815;48.386;11.738;2023-01-13T02:16:07;96279.03;;;6.45;88.95
48041;BME280;33815;48.386;11.738;2023-01-13T02:22:26;96252.31;;;6.34;88.04
48041;BME280;33815;48.386;11.738;2023-01-13T02:24:58;96270.94;;;6.59;87.59
48041;BME280;33815;48.386;11.738;2023-01-13T02:36:17;96259.75;;;6.68;86.38
48041;BME280;33815;48.386;11.738;2023-01-13T02:38:53;96256.72;;;6.63;86.39
48041;BME280;33815;48.386;11.738;2023-01-13T02:44:47;96252.38;;;6.64;86.10
48041;BME280;33815;48.386;11.738;2023-01-13T02:47:21;96256.50;;;6.66;86.72
48041;BME280;33815;48.386;11.738;2023-01-13T02:49:53;96252.38;;;6.64;86.90
48041;BME280;33815;48.386;11.738;2023-01-13T02:52:34;96238.84;;;6.41;87.20
48041;BME280;33815;48.386;11.738;2023-01-13T02:55:05;96216.88;;;6.35;87.16
48041;BME280;33815;48.386;11.738;2023-01-13T02:57:33;96237.50;;;6.56;86.89
48041;BME280;33815;48.386;11.738;2023-01-13T03:00:02;96240.25;;;6.64;87.20
48041;BME280;33815;48.386;11.738;2023-01-13T03:02:28;96229.69;;;6.37;87.36
48041;BME280;33815;48.386;11.738;2023-01-13T03:04:56;96245.94;;;6.39;87.14
48041;BME280;33815;48.386;11.738;2023-01-13T03:07:46;96245.47;;;6.24;88.74
48041;BME280;33815;48.386;11.738;2023-01-13T03:10:46;96248.16;;;6.12;89.85
48041;BME280;33815;48.386;11.738;2023-01-13T03:13:32;96234.53;;;6.10;89.82
48041;BME280;33815;48.386;11.738;2023-01-13T03:16:11;96220.72;;;6.00;89.86
48041;BME280;33815;48.386;11.738;2023-01-13T03:19:12;96237.31;;;6.28;89.10
48041;BME280;33815;48.386;11.738;2023-01-13T03:22:00;96224.72;;;6.14;89.34
48041;BME280;33815;48.386;11.738;2023-01-13T03:24:47;96232.38;;;6.15;89.96
48041;BME280;33815;48.386;11.738;2023-01-13T03:29:49;96236.94;;;6.33;89.00
48041;BME280;33815;48.386;11.738;2023-01-13T03:32:28;96212.09;;;6.21;89.33
48041;BME280;33815;48.386;11.738;2023-01-13T03:35:03;96205.16;;;6.31;88.51
48041;BME280;33815;48.386;11.738;2023-01-13T03:37:36;96213.91;;;6.40;88.03
48041;BME280;33815;48.386;11.738;2023-01-13T03:40:07;96219.34;;;6.37;88.40
48041;BME280;33815;48.386;11.738;2023-01-13T03:42:35;96211.72;;;6.45;87.92
48041;BME280;33815;48.386;11.738;2023-01-13T03:45:09;96220.47;;;6.54;87.16
48041;BME280;33815;48.386;11.738;2023-01-13T03:47:52;96220.09;;;6.58;86.83
48041;BME280;33815;48.386;11.738;2023-01-13T03:50:22;96209.56;;;6.50;87.48
48041;BME280;33815;48.386;11.738;2023-01-13T03:52:53;96220.56;;;6.32;92.22
48041;BME280;33815;48.386;11.738;2023-01-13T03:55:22;96211.66;;;6.15;92.46
48041;BME280;33815;48.386;11.738;2023-01-13T03:57:59;96206.72;;;6.03;93.75
48041;BME280;33815;48.386;11.738;2023-01-13T04:00:30;96199.13;;;5.80;94.02
48041;BME280;33815;48.386;11.738;2023-01-13T04:03:10;96211.03;;;5.92;93.73
48041;BME280;33815;48.386;11.738;2023-01-13T04:05:41;96202.78;;;6.08;92.42
48041;BME280;33815;48.386;11.738;2023-01-13T04:08:15;96207.66;;;6.02;91.47
48041;BME280;33815;48.386;11.738;2023-01-13T04:11:03;96212.38;;;6.27;88.45
48041;BME280;33815;48.386;11.738;2023-01-13T04:13:34;96214.84;;;6.29;89.33
48041;BME280;33815;48.386;11.738;2023-01-13T04:16:01;96197.81;;;6.36;87.90
48041;BME280;33815;48.386;11.738;2023-01-13T04:18:29;96201.09;;;6.48;87.03
48041;BME280;33815;48.386;11.738;2023-01-13T04:20:57;96199.66;;;6.55;85.77
48041;BME280;33815;48.386;11.738;2023-01-13T04:23:23;96204.56;;;6.78;83.81
48041;BME280;33815;48.386;11.738;2023-01-13T04:25:48;96196.78;;;6.68;83.77
48041;BME280;33815;48.386;11.738;2023-01-13T04:28:14;96195.81;;;6.79;83.07
48041;BME280;33815;48.386;11.738;2023-01-13T04:30:41;96170.06;;;6.67;82.48
48041;BME280;33815;48.386;11.738;2023-01-13T04:33:07;96196.50;;;6.81;82.67
48041;BME280;33815;48.386;11.738;2023-01-13T04:35:33;96192.69;;;6.85;81.98
48041;BME280;33815;48.386;11.738;2023-01-13T04:38:03;96190.53;;;6.90;81.89
48041;BME280;33815;48.386;11.738;2023-01-13T04:40:28;96171.56;;;6.99;80.05
48041;BME280;33815;48.386;11.738;2023-01-13T04:42:53;96187.94;;;7.00;80.00
48041;BME280;33815;48.386;11.738;2023-01-13T04:45:19;96178.88;;;7.14;78.32
48041;BME280;33815;48.386;11.738;2023-01-13T04:47:44;96196.63;;;7.28;78.87
48041;BME280;33815;48.386;11.738;2023-01-13T04:50:10;96187.38;;;7.16;78.63
48041;BME280;33815;48.386;11.738;2023-01-13T04:52:36;96192.94;;;7.31;76.99
48041;BME280;33815;48.386;11.738;2023-01-13T04:55:01;96188.72;;;7.20;78.10
48041;BME280;33815;48.386;11.738;2023-01-13T04:57:26;96197.56;;;7.27;79.22
48041;BME280;33815;48.386;11.738;2023-01-13T04:59:52;96197.00;;;7.33;78.58
48041;BME280;33815;48.386;11.738;2023-01-13T05:02:17;96202.22;;;7.14;80.80
48041;BME280;33815;48.386;11.738;2023-01-13T05:04:46;96177.28;;;6.93;84.73
48041;BME280;33815;48.386;11.738;2023-01-13T05:07:12;96185.06;;;6.83;86.00
48041;BME280;33815;48.386;11.738;2023-01-13T05:09:38;96183.00;;;6.87;85.02
48041;BME280;33815;48.386;11.738;2023-01-13T05:12:04;96186.16;;;6.81;85.59
48041;BME280;33815;48.386;11.738;2023-01-13T05:14:47;96184.78;;;6.96;83.38
48041;BME280;33815;48.386;11.738;2023-01-13T05:17:31;96192.13;;;6.81;85.00
48041;BME280;33815;48.386;11.738;2023-01-13T05:19:57;96198.31;;;6.80;87.40
48041;BME280;33815;48.386;11.738;2023-01-13T05:22:22;96193.22;;;6.69;89.13
48041;BME280;33815;48.386;11.738;2023-01-13T05:25:08;96191.88;;;6.45;93.11
48041;BME280;33815;48.386;11.738;2023-01-13T05:27:45;96170.81;;;6.19;94.61
48041;BME280;33815;48.386;11.738;2023-01-13T05:30:11;96183.91;;;6.27;91.20
48041;BME280;33815;48.386;11.738;2023-01-13T05:32:36;96178.69;;;6.08;95.60
48041;BME280;33815;48.386;11.738;2023-01-13T05:35:01;96184.56;;;6.20;94.30
48041;BME280;33815;48.386;11.738;2023-01-13T05:37:26;96189.56;;;6.02;95.78
48041;BME280;33815;48.386;11.738;2023-01-13T05:39:52;96188.78;;;6.11;93.16
48041;BME280;33815;48.386;11.738;2023-01-13T05:42:36;96195.06;;;6.18;92.54
48041;BME280;33815;48.386;11.738;2023-01-13T05:45:20;96171.63;;;6.20;91.95
48041;BME280;33815;48.386;11.738;2023-01-13T05:47:45;96193.72;;;6.33;91.03
48041;BME280;33815;48.386;11.738;2023-01-13T05:50:11;96186.81;;;6.34;92.04
48041;BME280;33815;48.386;11.738;2023-01-13T05:52:36;96174.97;;;6.41;89.05
48041;BME280;33815;48.386;11.738;2023-01-13T05:55:01;96191.16;;;6.33;91.52
48041;BME280;33815;48.386;11.738;2023-01-13T05:57:27;96183.78;;;6.29;91.47
48041;BME280;33815;48.386;11.738;2023-01-13T05:59:52;96159.66;;;6.28;88.15
48041;BME280;33815;48.386;11.738;2023-01-13T06:02:17;96175.13;;;6.59;87.67
48041;BME280;33815;48.386;11.738;2023-01-13T06:04:43;96174.13;;;6.41;89.32
48041;BME280;33815;48.386;11.738;2023-01-13T06:07:08;96178.78;;;6.47;89.59
48041;BME280;33815;48.386;11.738;2023-01-13T06:09:33;96166.91;;;6.44;88.61
48041;BME280;33815;48.386;11.738;2023-01-13T06:11:58;96186.41;;;6.48;89.12
48041;BME280;33815;48.386;11.738;2023-01-13T06:14:24;96169.94;;;6.59;87.97
48041;BME280;33815;48.386;11.738;2023-01-13T06:16:49;96181.78;;;6.62;88.03
48041;BME280;33815;48.386;11.738;2023-01-13T06:19:14;96177.44;;;6.72;86.86
48041;BME280;33815;48.386;11.738;2023-01-13T06:21:39;96185.59;;;6.97;84.74
48041;BME280;33815;48.386;11.738;2023-01-13T06:24:06;96175.78;;;7.00;84.23
48041;BME280;33815;48.386;11.738;2023-01-13T06:26:38;96172.78;;;7.05;84.82
48041;BME280;33815;48.386;11.738;2023-01-13T06:29:04;96174.94;;;7.10;83.59
48041;BME280;33815;48.386;11.738;2023-01-13T06:31:30;96174.69;;;7.03;84.22
48041;BME280;33815;48.386;11.738;2023-01-13T06:34:01;96187.38;;;7.16;84.00
48041;BME280;33815;48.386;11.738;2023-01-13T06:36:37;96178.88;;;7.14;83.24
48041;BME280;33815;48.386;11.738;2023-01-13T06:39:04;96169.88;;;7.18;82.15
48041;BME280;33815;48.386;11.738;2023-01-13T06:41:32;96192.91;;;7.41;81.92
48041;BME280;33815;48.386;11.738;2023-01-13T06:44:16;96162.50;;;7.33;80.83
48041;BME280;33815;48.386;11.738;2023-01-13T06:46:42;96199.19;;;7.48;81.67
48041;BME280;33815;48.386;11.738;2023-01-13T06:49:07;96187.81;;;7.59;80.80
48041;BME280;33815;48.386;11.738;2023-01-13T06:51:32;96183.44;;;7.59;81.23
48041;BME280;33815;48.386;11.738;2023-01-13T06:53:58;96183.16;;;7.62;81.53
48041;BME280;33815;48.386;11.738;2023-01-13T06:56:23;96178.22;;;7.69;81.66
48041;BME280;33815;48.386;11.738;2023-01-13T06:58:48;96188.56;;;7.79;81.04
48041;BME280;33815;48.386;11.738;2023-01-13T07:01:13;96192.94;;;7.78;81.03
48041;BME280;33815;48.386;11.738;2023-01-13T07:03:39;96191.53;;;7.84;80.89
48041;BME280;33815;48.386;11.738;2023-01-13T07:06:05;96167.59;;;7.62;82.16
48041;BME280;33815;48.386;11.738;2023-01-13T07:08:30;96188.78;;;7.85;81.93
48041;BME280;33815;48.386;11.738;2023-01-13T07:10:55;96195.06;;;7.93;82.83
48041;BME280;33815;48.386;11.738;2023-01-13T07:13:21;96170.78;;;7.84;82.71
48041;BME280;33815;48.386;11.738;2023-01-13T07:16:06;96195.63;;;7.86;83.06
48041;BME280;33815;48.386;11.738;2023-01-13T07:18:33;96198.06;;;7.88;83.17
48041;BME280;33815;48.386;11.738;2023-01-13T07:21:01;96190.44;;;7.86;83.80
48041;BME280;33815;48.386;11.738;2023-01-13T07:23:28;96196.31;;;7.88;84.22
48041;BME280;33815;48.386;11.738;2023-01-13T07:25:58;96199.06;;;7.87;83.54
48041;BME280;33815;48.386;11.738;2023-01-13T07:28:24;96185.94;;;7.88;83.35
48041;BME280;33815;48.386;11.738;2023-01-13T07:30:49;96199.19;;;7.85;83.74
48041;BME280;33815;48.386;11.738;2023-01-13T07:33:15;96172.78;;;7.62;84.37
48041;BME280;33815;48.386;11.738;2023-01-13T07:35:42;96173.16;;;7.77;83.75
48041;BME280;33815;48.386;11.738;2023-01-13T07:38:07;96197.28;;;7.87;83.74
48041;BME280;33815;48.386;11.738;2023-01-13T07:40:32;96197.81;;;7.91;83.55
48041;BME280;33815;48.386;11.738;2023-01-13T07:42:58;96191.16;;;7.79;84.25
48041;BME280;33815;48.386;11.738;2023-01-13T07:45:42;96193.63;;;7.80;82.78
48041;BME280;33815;48.386;11.738;2023-01-13T07:48:07;96204.91;;;7.89;83.61
48041;BME280;33815;48.386;11.738;2023-01-13T07:50:32;96204.09;;;7.88;84.35
48041;BME280;33815;48.386;11.738;2023-01-13T07:52:58;96188.53;;;7.88;83.03
48041;BME280;33815;48.386;11.738;2023-01-13T07:55:23;96189.50;;;7.87;82.30
48041;BME280;33815;48.386;11.738;2023-01-13T07:57:48;96178.19;;;7.79;82.66
48041;BME280;33815;48.386;11.738;2023-01-13T08:00:14;96174.84;;;7.96;81.34
48041;BME280;33815;48.386;11.738;2023-01-13T08:02:39;96194.50;;;7.99;80.92
48041;BME280;33815;48.386;11.738;2023-01-13T08:05:06;96193.09;;;8.04;78.98
48041;BME280;33815;48.386;11.738;2023-01-13T08:07:31;96175.06;;;8.03;79.12
48041;BME280;33815;48.386;11.738;2023-01-13T08:09:56;96181.88;;;8.14;79.07
48041;BME280;33815;48.386;11.738;2023-01-13T08:12:21;96188.63;;;8.24;79.69
48041;BME280;33815;48.386;11.738;2023-01-13T08:15:06;96197.81;;;8.19;79.59
48041;BME280;33815;48.386;11.738;2023-01-13T08:17:34;96178.13;;;8.16;79.66
48041;BME280;33815;48.386;11.738;2023-01-13T08:19:59;96183.56;;;8.23;79.63
48041;BME280;33815;48.386;11.738;2023-01-13T08:22:24;96191.59;;;8.30;79.35
48041;BME280;33815;48.386;11.738;2023-01-13T08:24:50;96190.78;;;8.29;79.03
48041;BME280;33815;48.386;11.738;2023-01-13T08:27:15;96194.28;;;8.38;79.22
48041;BME280;33815;48.386;11.738;2023-01-13T08:29:40;96177.88;;;8.47;78.50
48041;BME280;33815;48.386;11.738;2023-01-13T08:32:05;96188.81;;;8.41;78.47
48041;BME280;33815;48.386;11.738;2023-01-13T08:34:31;96197.16;;;8.45;78.81
48041;BME280;33815;48.386;11.738;2023-01-13T08:36:56;96180.06;;;8.42;78.37
48041;BME280;33815;48.386;11.738;2023-01-13T08:39:22;96212.28;;;8.49;78.94
48041;BME280;33815;48.386;11.738;2023-01-13T08:41:47;96215.50;;;8.61;78.40
48041;BME280;33815;48.386;11.738;2023-01-13T08:44:19;96192.31;;;8.50;78.68
48041;BME280;33815;48.386;11.738;2023-01-13T08:46:44;96206.38;;;8.57;78.44
48041;BME280;33815;48.386;11.738;2023-01-13T08:49:09;96203.69;;;8.49;80.48
48041;BME280;33815;48.386;11.738;2023-01-13T08:51:35;96191.09;;;8.44;79.52
48041;BME280;33815;48.386;11.738;2023-01-13T08:54:00;96199.97;;;8.51;78.71
48041;BME280;33815;48.386;11.738;2023-01-13T08:56:28;96201.41;;;8.64;78.57
48041;BME280;33815;48.386;11.738;2023-01-13T08:58:56;96200.97;;;8.68;78.39
48041;BME280;33815;48.386;11.738;2023-01-13T09:01:22;96205.13;;;8.79;76.69
48041;BME280;33815;48.386;11.738;2023-01-13T09:03:47;96203.78;;;8.75;77.54
48041;BME280;33815;48.386;11.738;2023-01-13T09:06:12;96200.53;;;8.73;77.29
48041;BME280;33815;48.386;11.738;2023-01-13T09:08:38;96193.59;;;8.64;77.10
48041;BME280;33815;48.386;11.738;2023-01-13T09:11:04;96204.69;;;8.84;76.44
48041;BME280;33815;48.386;11.738;2023-01-13T09:13:49;96197.94;;;8.73;76.13
48041;BME280;33815;48.386;11.738;2023-01-13T09:16:14;96206.16;;;8.86;75.70
48041;BME280;33815;48.386;11.738;2023-01-13T09:18:40;96205.13;;;8.79;76.38
48041;BME280;33815;48.386;11.738;2023-01-13T09:21:05;96215.97;;;8.93;75.37
48041;BME280;33815;48.386;11.738;2023-01-13T09:23:30;96216.19;;;8.99;75.34
48041;BME280;33815;48.386;11.738;2023-01-13T09:25:56;96205.81;;;8.99;74.75
48041;BME280;33815;48.386;11.738;2023-01-13T09:28:21;96215.38;;;8.99;73.69
48041;BME280;33815;48.386;11.738;2023-01-13T09:30:46;96234.97;;;8.93;75.13
48041;BME280;33815;48.386;11.738;2023-01-13T09:33:11;96212.91;;;8.97;75.52
48041;BME280;33815;48.386;11.738;2023-01-13T09:35:58;96229.53;;;9.04;75.03
48041;BME280;33815;48.386;11.738;2023-01-13T09:38:25;96223.31;;;8.97;74.21
48041;BME280;33815;48.386;11.738;2023-01-13T09:40:50;96244.56;;;9.11;75.35
48041;BME280;33815;48.386;11.738;2023-01-13T09:43:22;96242.91;;;9.09;75.48
48041;BME280;33815;48.386;11.738;2023-01-13T09:46:17;96236.53;;;9.04;74.65
48041;BME280;33815;48.386;11.738;2023-01-13T09:49:03;96224.66;;;9.01;75.01
48041;BME280;33815;48.386;11.738;2023-01-13T09:51:40;96223.31;;;8.97;75.05
48041;BME280;33815;48.386;11.738;2023-01-13T09:54:15;96226.28;;;9.02;75.28
48041;BME280;33815;48.386;11.738;2023-01-13T09:56:44;96228.00;;;8.94;74.86
48041;BME280;33815;48.386;11.738;2023-01-13T09:59:10;96222.50;;;8.97;74.88
48041;BME280;33815;48.386;11.738;2023-01-13T10:04:10;96223.69;;;8.84;76.04
48041;BME280;33815;48.386;11.738;2023-01-13T10:06:39;96212.91;;;8.79;75.76
48041;BME280;33815;48.386;11.738;2023-01-13T10:09:13;96220.56;;;8.81;76.27
48041;BME280;33815;48.386;11.738;2023-01-13T10:11:44;96219.81;;;8.70;76.51
48041;BME280;33815;48.386;11.738;2023-01-13T10:14:41;96195.47;;;8.71;76.24
48041;BME280;33815;48.386;11.738;2023-01-13T10:20:07;96208.56;;;8.80;76.60
48041;BME280;33815;48.386;11.738;2023-01-13T10:25:44;96190.78;;;8.93;74.97
48041;BME280;33815;48.386;11.738;2023-01-13T10:28:14;96204.09;;;9.08;74.32
48041;BME280;33815;48.386;11.738;2023-01-13T10:30:42;96191.72;;;9.28;73.48
48041;BME280;33815;48.386;11.738;2023-01-13T10:36:02;96194.06;;;9.66;72.31
48041;BME280;33815;48.386;11.738;2023-01-13T10:41:00;96179.47;;;9.73;71.26
48041;BME280;33815;48.386;11.738;2023-01-13T10:43:27;96175.22;;;10.06;70.02
48041;BME280;33815;48.386;11.738;2023-01-13T10:46:05;96171.00;;;10.05;70.04
48041;BME280;33815;48.386;11.738;2023-01-13T10:48:33;96174.44;;;10.14;70.39
48041;BME280;33815;48.386;11.738;2023-01-13T10:51:53;96172.38;;;10.26;71.02
48041;BME280;33815;48.386;11.738;2023-01-13T10:54:13;96145.72;;;10.40;69.61
48041;BME280;33815;48.386;11.738;2023-01-13T10:56:43;96171.16;;;10.47;70.21
48041;BME280;33815;48.386;11.738;2023-01-13T11:01:42;96146.50;;;10.33;69.84
48041;BME280;33815;48.386;11.738;2023-01-13T11:04:29;96149.66;;;10.44;70.80
48041;BME280;33815;48.386;11.738;2023-01-13T11:06:55;96148.00;;;10.43;70.67
48041;BME280;33815;48.386;11.738;2023-01-13T11:09:21;96146.91;;;10.54;70.53
48041;BME280;33815;48.386;11.738;2023-01-13T11:11:47;96129.47;;;10.47;71.14
48041;BME280;33815;48.386;11.738;2023-01-13T11:19:36;96138.91;;;10.56;71.48
48041;BME280;33815;48.386;11.738;2023-01-13T11:22:16;96131.13;;;10.64;70.71
48041;BME280;33815;48.386;11.738;2023-01-13T11:25:00;96130.97;;;10.74;70.28
48041;BME280;33815;48.386;11.738;2023-01-13T11:27:42;96120.53;;;10.82;69.70
48041;BME280;33815;48.386;11.738;2023-01-13T11:36:02;96141.72;;;10.79;70.17
48041;BME280;33815;48.386;11.738;2023-01-13T11:38:37;96112.84;;;10.48;70.50
48041;BME280;33815;48.386;11.738;2023-01-13T11:41:09;96109.53;;;10.29;72.05
48041;BME280;33815;48.386;11.738;2023-01-13T11:43:45;96123.38;;;10.21;72.68
48041;BME280;33815;48.386;11.738;2023-01-13T11:46:14;96130.34;;;10.21;72.94
48041;BME280;33815;48.386;11.738;2023-01-13T11:48:41;96148.09;;;10.17;73.53
48041;BME280;33815;48.386;11.738;2023-01-13T11:57:12;96121.44;;;10.32;72.72
48041;BME280;33815;48.386;11.738;2023-01-13T12:02:29;96137.84;;;10.24;74.34
48041;BME280;33815;48.386;11.738;2023-01-13T12:07:49;96149.00;;;10.42;72.08
48041;BME280;33815;48.386;11.738;2023-01-13T12:10:48;96123.06;;;10.33;71.58
48041;BME280;33815;48.386;11.738;2023-01-13T12:16:29;96132.41;;;10.60;71.12
48041;BME280;33815;48.386;11.738;2023-01-13T12:22:01;96135.50;;;10.47;71.55
48041;BME280;33815;48.386;11.738;2023-01-13T12:25:03;96140.59;;;10.06;73.00
48041;BME280;33815;48.386;11.738;2023-01-13T12:27:40;96139.44;;;10.08;74.09
48041;BME280;33815;48.386;11.738;2023-01-13T12:30:22;96127.53;;;9.98;75.39
48041;BME280;33815;48.386;11.738;2023-01-13T12:32:52;96113.97;;;9.86;76.14
48041;BME280;33815;48.386;11.738;2023-01-13T12:35:31;96141.50;;;9.97;76.11
48041;BME280;33815;48.386;11.738;2023-01-13T12:38:16;96127.41;;;10.07;76.63
48041;BME280;33815;48.386;11.738;2023-01-13T12:40:47;96145.28;;;10.02;76.93
48041;BME280;33815;48.386;11.738;2023-01-13T12:43:22;96116.84;;;9.74;77.72
48041;BME280;33815;48.386;11.738;2023-01-13T12:48:45;96149.03;;;9.73;79.94
48041;BME280;33815;48.386;11.738;2023-01-13T12:51:31;96149.41;;;9.78;79.52
48041;BME280;33815;48.386;11.738;2023-01-13T12:53:58;96152.41;;;9.92;78.80
48041;BME280;33815;48.386;11.738;2023-01-13T12:56:44;96162.31;;;10.31;78.31
48041;BME280;33815;48.386;11.738;2023-01-13T13:01:42;96153.56;;;10.40;76.91
48041;BME280;33815;48.386;11.738;2023-01-13T13:04:20;96153.56;;;10.40;77.66
48041;BME280;33815;48.386;11.738;2023-01-13T13:07:07;96148.19;;;10.50;76.46
48041;BME280;33815;48.386;11.738;2023-01-13T13:09:42;96166.63;;;10.65;76.38
48041;BME280;33815;48.386;11.738;2023-01-13T13:15:41;96170.53;;;10.53;76.07
48041;BME280;33815;48.386;11.738;2023-01-13T13:26:00;96152.13;;;10.71;74.19
48041;BME280;33815;48.386;11.738;2023-01-13T13:28:30;96151.34;;;10.70;73.99
48041;BME280;33815;48.386;11.738;2023-01-13T13:31:13;96157.22;;;10.89;73.77
48041;BME280;33815;48.386;11.738;2023-01-13T13:36:44;96161.03;;;10.35;75.54
48041;BME280;33815;48.386;11.738;2023-01-13T13:39:24;96163.59;;;10.27;75.83
48041;BME280;33815;48.386;11.738;2023-01-13T13:42:16;96163.84;;;10.07;77.14
48041;BME280;33815;48.386;11.738;2023-01-13T13:45:02;96161.78;;;10.27;76.64
48041;BME280;33815;48.386;11.738;2023-01-13T13:47:55;96165.13;;;10.03;77.47
48041;BME280;33815;48.386;11.738;2023-01-13T13:50:20;96173.72;;;9.95;77.37
48041;BME280;33815;48.386;11.738;2023-01-13T13:52:54;96202.19;;;9.89;78.39
48041;BME280;33815;48.386;11.738;2023-01-13T13:55:24;96282.81;;;9.81;78.73
48041;BME280;33815;48.386;11.738;2023-01-13T13:57:52;96336.06;;;7.34;90.68
48041;BME280;33815;48.386;11.738;2023-01-13T14:00:21;96337.38;;;5.55;100.00
48041;BME280;33815;48.386;11.738;2023-01-13T14:02:50;96329.56;;;4.69;100.00
48041;BME280;33815;48.386;11.738;2023-01-13T14:05:22;96352.66;;;4.14;100.00
48041;BME280;33815;48.386;11.738;2023-01-13T14:08:15;96348.69;;;3.63;100.00
48041;BME280;33815;48.386;11.738;2023-01-13T14:10:44;96337.72;;;3.36;100.00
48041;BME280;33815;48.386;11.738;2023-01-13T14:13:29;96383.31;;;3.47;100.00
48041;BME280;33815;48.386;11.738;2023-01-13T14:16:01;96384.25;;;3.46;100.00
48041;BME280;33815;48.386;11.738;2023-01-13T14:18:28;96391.75;;;3.49;100.00
48041;BME280;33815;48.386;11.738;2023-01-13T14:21:16;96416.75;;;3.60;100.00
48041;BME280;33815;48.386;11.738;2023-01-13T14:23:50;96413.13;;;3.63;100.00
48041;BME280;33815;48.386;11.738;2023-01-13T14:26:16;96390.19;;;3.71;100.00
48041;BME280;33815;48.386;11.738;2023-01-13T14:28:42;96394.75;;;3.67;100.00
48041;BME280;33815;48.386;11.738;2023-01-13T14:31:09;96395.97;;;3.50;100.00
48041;BME280;33815;48.386;11.738;2023-01-13T14:33:46;96406.03;;;3.53;100.00
48041;BME280;33815;48.386;11.738;2023-01-13T14:44:27;96422.47;;;3.52;100.00
48041;BME280;33815;48.386;11.738;2023-01-13T14:46:55;96437.91;;;3.52;100.00